Time;durP1;ratioP1;P1;durP2;ratioP2;P2;SDS_P1;SDS_P2;PMS_P1;PMS_P2;Temp;Humidity;BMP_temperature;BMP_pressure;BME280_temperature;BME280_humidity;BME280_pressure;Samples;Min_cycle;Max_cycle;Signal;HPM_P1;HPM_P2
2023/05/08 00:01:11;;;;;;;11.35;8.18;;;10.80;99.90;;;;;;5133145;28;20118;-82
2023/05/08 00:03:38;;;;;;;12.60;8.48;;;10.80;99.90;;;;;;5132816;28;20074;-82
2023/05/08 00:06:05;;;;;;;11.95;8.23;;;10.80;99.90;;;;;;5132698;28;20038;-82
2023/05/08 00:08:32;;;;;;;11.57;8.38;;;10.80;99.90;;;;;;5144441;28;20508;-81
2023/05/08 00:10:58;;;;;;;12.60;7.90;;;10.70;99.90;;;;;;5136097;28;20035;-81
2023/05/08 00:13:25;;;;;;;14.63;8.38;;;10.70;99.90;;;;;;5152355;27;20035;-82
2023/05/08 00:15:52;;;;;;;13.75;8.80;;;10.70;99.90;;;;;;5136118;27;20039;-81
2023/05/08 00:18:18;;;;;;;11.55;8.15;;;10.70;99.90;;;;;;5136295;27;20043;-81
2023/05/08 00:20:45;;;;;;;11.85;7.85;;;10.80;99.90;;;;;;5150197;27;20043;-82
2023/05/08 00:23:12;;;;;;;13.05;8.48;;;10.70;99.90;;;;;;5132435;28;20043;-82
2023/05/08 00:25:38;;;;;;;13.88;8.80;;;10.80;99.90;;;;;;5099532;28;20031;-81
2023/05/08 00:28:05;;;;;;;11.75;8.57;;;10.70;99.90;;;;;;5099163;28;20088;-82
2023/05/08 00:30:32;;;;;;;12.80;8.52;;;10.80;99.90;;;;;;5109160;28;20043;-82
2023/05/08 00:32:58;;;;;;;13.40;8.82;;;10.80;99.90;;;;;;5115720;28;20488;-81
2023/05/08 00:35:25;;;;;;;13.38;8.27;;;10.80;99.90;;;;;;5115432;28;20043;-82
2023/05/08 00:37:52;;;;;;;12.48;8.35;;;10.80;99.90;;;;;;5115834;28;20044;-82
2023/05/08 00:40:18;;;;;;;13.05;8.40;;;10.80;99.90;;;;;;5098526;28;20127;-82
2023/05/08 00:42:45;;;;;;;12.45;8.68;;;10.80;99.90;;;;;;5115573;28;20041;-81
2023/05/08 00:45:12;;;;;;;14.55;8.70;;;10.80;99.90;;;;;;5131817;28;20046;-81
2023/05/08 00:47:39;;;;;;;12.50;8.70;;;10.80;99.90;;;;;;5098653;28;20040;-82
2023/05/08 00:50:06;;;;;;;14.10;9.23;;;10.80;99.90;;;;;;5135787;27;20042;-81
2023/05/08 00:52:33;;;;;;;12.25;8.45;;;10.80;99.90;;;;;;5152848;27;20092;-82
2023/05/08 00:55:01;;;;;;;12.98;8.45;;;10.80;99.90;;;;;;5135519;27;20046;-81
2023/05/08 00:57:31;;;;;;;13.82;8.95;;;10.80;99.90;;;;;;5169825;27;20042;-82
2023/05/08 00:59:59;;;;;;;11.82;8.93;;;10.80;99.90;;;;;;5169044;27;20510;-81
2023/05/08 01:02:27;;;;;;;13.48;9.35;;;10.80;99.90;;;;;;5133237;27;20407;-82
2023/05/08 01:04:55;;;;;;;12.10;8.38;;;10.80;99.90;;;;;;5132404;28;20039;-82
2023/05/08 01:07:22;;;;;;;12.80;8.20;;;10.80;99.90;;;;;;5114471;28;20039;-81
2023/05/08 01:09:49;;;;;;;14.27;8.52;;;10.80;99.90;;;;;;5114753;28;20407;-82
2023/05/08 01:12:37;;;;;;;13.95;8.00;;;10.70;99.90;;;;;;5114204;27;20674;-81
2023/05/08 01:15:11;;;;;;;12.30;8.68;;;10.70;99.90;;;;;;5152192;27;20039;-81
2023/05/08 01:18:12;;;;;;;12.50;9.02;;;10.60;99.90;;;;;;5152107;27;20057;-81
2023/05/08 01:21:02;;;;;;;12.05;8.52;;;10.60;99.90;;;;;;5144813;27;20039;-81
2023/05/08 01:23:35;;;;;;;11.00;8.13;;;10.60;99.90;;;;;;5151764;28;20129;-81
2023/05/08 01:26:05;;;;;;;13.55;8.20;;;10.50;99.90;;;;;;5152191;27;20099;-81
2023/05/08 01:28:56;;;;;;;11.35;8.70;;;10.40;99.90;;;;;;5152025;27;20495;-82
2023/05/08 01:31:47;;;;;;;14.80;7.95;;;10.40;99.90;;;;;;5168623;27;20555;-81
2023/05/08 01:34:22;;;;;;;13.55;8.90;;;10.40;99.90;;;;;;5151487;27;20059;-81
2023/05/08 01:37:10;;;;;;;12.57;8.27;;;10.40;99.90;;;;;;5152018;27;20035;-82
2023/05/08 01:39:50;;;;;;;12.27;8.77;;;10.30;99.90;;;;;;5151822;27;20035;-82
2023/05/08 01:42:32;;;;;;;11.73;7.95;;;10.30;99.90;;;;;;5151368;27;20050;-81
2023/05/08 01:45:03;;;;;;;12.02;8.05;;;10.20;99.90;;;;;;5168709;27;20074;-81
2023/05/08 01:47:35;;;;;;;13.25;9.10;;;10.10;99.90;;;;;;5168708;27;20035;-82
2023/05/08 01:50:32;;;;;;;12.13;8.52;;;10.10;99.90;;;;;;5151760;27;20055;-81
2023/05/08 01:53:06;;;;;;;14.68;8.45;;;10.10;99.90;;;;;;5149430;27;20051;-81
2023/05/08 01:55:36;;;;;;;12.35;8.85;;;10.00;99.90;;;;;;5163832;27;20031;-81
2023/05/08 01:58:08;;;;;;;10.30;7.72;;;10.00;99.90;;;;;;5168525;27;20490;-81
2023/05/08 02:00:38;;;;;;;11.93;8.77;;;10.00;99.90;;;;;;5168714;27;20035;-82
2023/05/08 02:03:06;;;;;;;12.70;8.43;;;9.90;99.90;;;;;;5135457;28;20104;-82
2023/05/08 02:05:36;;;;;;;15.20;8.85;;;9.90;99.90;;;;;;5130296;28;20130;-82
2023/05/08 02:08:05;;;;;;;11.68;8.98;;;9.80;99.90;;;;;;5113823;28;20039;-82
2023/05/08 02:10:34;;;;;;;13.98;8.43;;;9.90;99.90;;;;;;5130462;28;20492;-82
2023/05/08 02:13:02;;;;;;;12.10;7.93;;;9.80;99.90;;;;;;5130699;28;20130;-81
2023/05/08 02:15:34;;;;;;;11.77;8.25;;;9.90;99.90;;;;;;5130572;28;20039;-82
2023/05/08 02:18:04;;;;;;;11.30;8.10;;;9.80;99.90;;;;;;5131206;28;20039;-82
2023/05/08 02:20:31;;;;;;;11.95;8.30;;;9.80;99.90;;;;;;5129953;28;20040;-82
2023/05/08 02:22:59;;;;;;;12.52;8.60;;;9.80;99.90;;;;;;5135874;27;20104;-82
2023/05/08 02:25:28;;;;;;;14.60;8.48;;;9.80;99.90;;;;;;5167914;27;20043;-82
2023/05/08 02:27:55;;;;;;;10.45;7.70;;;9.80;99.90;;;;;;5134090;27;20491;-81
2023/05/08 02:30:25;;;;;;;12.27;8.18;;;9.80;99.90;;;;;;5133007;27;20035;-81
2023/05/08 02:32:53;;;;;;;12.07;8.02;;;9.80;99.90;;;;;;5148933;27;20035;-81
2023/05/08 02:35:21;;;;;;;10.65;7.82;;;9.80;99.90;;;;;;5146056;28;20063;-81
2023/05/08 02:37:54;;;;;;;13.75;8.45;;;9.80;99.90;;;;;;5113010;28;20077;-81
2023/05/08 02:40:23;;;;;;;10.77;7.80;;;9.80;99.90;;;;;;5146666;28;20043;-81
2023/05/08 02:42:50;;;;;;;11.52;8.18;;;9.80;99.90;;;;;;5147102;28;20165;-82
2023/05/08 02:45:17;;;;;;;10.65;8.05;;;9.80;99.90;;;;;;5131549;28;20114;-81
2023/05/08 02:48:21;;;;;;;13.40;8.15;;;9.70;99.90;;;;;;5130091;28;20124;-81
2023/05/08 02:50:59;;;;;;;10.50;7.50;;;9.70;99.90;;;;;;5147175;28;20036;-81
2023/05/08 02:53:34;;;;;;;12.88;8.00;;;9.70;99.90;;;;;;5146573;28;20444;-81
2023/05/08 02:56:15;;;;;;;11.10;7.28;;;9.70;99.90;;;;;;5130045;28;20050;-81
2023/05/08 02:58:48;;;;;;;12.48;7.38;;;9.70;99.90;;;;;;5129894;28;20039;-81
2023/05/08 03:01:26;;;;;;;12.63;8.07;;;9.70;99.90;;;;;;5146653;28;20468;-81
2023/05/08 03:04:01;;;;;;;10.98;7.68;;;9.70;99.90;;;;;;5129525;28;20047;-81
2023/05/08 03:06:35;;;;;;;11.00;7.90;;;9.60;99.90;;;;;;5129504;28;20043;-82
2023/05/08 03:09:05;;;;;;;12.98;7.75;;;9.60;99.90;;;;;;5146477;28;20388;-81
2023/05/08 03:11:41;;;;;;;9.95;7.38;;;9.50;99.90;;;;;;5129111;28;20488;-81
2023/05/08 03:14:14;;;;;;;11.95;7.97;;;9.40;99.90;;;;;;5129501;28;20038;-81
2023/05/08 03:16:45;;;;;;;11.60;7.53;;;9.50;99.90;;;;;;5133578;28;20035;-81
2023/05/08 03:19:36;;;;;;;13.65;8.07;;;9.50;99.90;;;;;;5167307;28;20077;-81
2023/05/08 03:22:05;;;;;;;10.93;7.25;;;9.40;99.90;;;;;;5149952;28;20487;-81
2023/05/08 03:24:35;;;;;;;10.30;7.25;;;9.30;99.90;;;;;;5132998;28;20456;-81
2023/05/08 03:27:02;;;;;;;13.55;8.00;;;9.30;99.90;;;;;;5129322;28;20510;-82
2023/05/08 03:29:30;;;;;;;11.85;7.78;;;9.30;99.90;;;;;;5112691;28;20044;-81
2023/05/08 03:32:01;;;;;;;9.93;7.38;;;9.30;99.90;;;;;;5112399;28;20043;-82
2023/05/08 03:34:29;;;;;;;11.70;8.30;;;9.30;99.90;;;;;;5145614;28;20502;-81
2023/05/08 03:36:56;;;;;;;14.88;8.40;;;9.30;99.90;;;;;;5125300;28;20036;-81
2023/05/08 03:39:24;;;;;;;13.40;8.10;;;9.20;99.90;;;;;;5112102;28;20039;-81
2023/05/08 03:41:51;;;;;;;12.15;7.57;;;9.20;99.90;;;;;;5129045;28;20051;-82
2023/05/08 03:44:19;;;;;;;12.38;7.18;;;9.20;99.90;;;;;;5112419;28;20047;-81
2023/05/08 03:46:49;;;;;;;12.32;8.40;;;9.20;99.90;;;;;;5136397;28;20047;-81
2023/05/08 03:49:17;;;;;;;11.73;8.18;;;9.10;99.90;;;;;;5150163;28;20127;-81
2023/05/08 03:51:44;;;;;;;12.00;8.10;;;9.20;99.90;;;;;;5132759;28;20043;-81
2023/05/08 03:54:11;;;;;;;11.30;7.88;;;9.10;99.90;;;;;;5133770;28;20039;-81
2023/05/08 03:56:38;;;;;;;11.55;7.80;;;9.10;99.90;;;;;;5132859;28;20042;-82
2023/05/08 03:59:23;;;;;;;11.95;7.90;;;9.10;99.90;;;;;;5116634;28;20407;-81
2023/05/08 04:01:58;;;;;;;13.32;8.10;;;9.10;99.90;;;;;;5132959;28;20126;-81
2023/05/08 04:04:41;;;;;;;12.43;7.75;;;9.00;99.90;;;;;;5132954;28;20047;-80
2023/05/08 04:07:36;;;;;;;12.57;8.45;;;9.10;99.90;;;;;;5099440;28;20040;-81
2023/05/08 04:10:20;;;;;;;11.90;8.03;;;9.10;99.90;;;;;;5149608;28;20043;-81
2023/05/08 04:13:07;;;;;;;11.07;7.90;;;9.10;99.90;;;;;;5132298;28;20035;-81
2023/05/08 04:15:38;;;;;;;12.60;8.68;;;9.00;99.90;;;;;;5149670;28;20038;-81
2023/05/08 04:18:13;;;;;;;11.30;8.52;;;9.00;99.90;;;;;;5132693;28;20039;-81
2023/05/08 04:20:42;;;;;;;12.77;8.85;;;9.00;99.90;;;;;;5148563;27;20554;-82
2023/05/08 04:23:16;;;;;;;14.18;8.65;;;9.10;99.90;;;;;;5132906;28;20051;-82
2023/05/08 04:25:43;;;;;;;12.77;8.95;;;9.00;99.90;;;;;;5132415;28;20444;-82
2023/05/08 04:28:11;;;;;;;12.10;8.65;;;9.10;99.90;;;;;;5144449;27;20035;-81
2023/05/08 04:30:39;;;;;;;12.95;8.35;;;9.10;99.90;;;;;;5136081;27;20372;-81
2023/05/08 04:33:07;;;;;;;16.52;9.10;;;9.10;99.90;;;;;;5152773;27;20096;-82
2023/05/08 04:35:34;;;;;;;11.80;8.50;;;9.10;99.90;;;;;;5118994;27;20104;-82
2023/05/08 04:38:01;;;;;;;13.07;8.63;;;9.10;99.90;;;;;;5133912;27;20058;-81
2023/05/08 04:40:28;;;;;;;12.70;8.73;;;9.10;99.90;;;;;;5135749;27;20039;-82
2023/05/08 04:42:55;;;;;;;12.45;9.23;;;9.10;99.90;;;;;;5135716;27;20493;-82
2023/05/08 04:45:22;;;;;;;14.07;9.40;;;9.10;99.90;;;;;;5152868;27;20039;-82
2023/05/08 04:47:48;;;;;;;11.93;8.90;;;9.10;99.90;;;;;;5133875;27;20079;-82
2023/05/08 04:50:15;;;;;;;14.52;8.73;;;9.10;99.90;;;;;;5115123;28;20092;-82
2023/05/08 04:52:42;;;;;;;13.23;8.98;;;9.10;99.90;;;;;;5098099;28;20035;-82
2023/05/08 04:55:09;;;;;;;14.32;9.18;;;9.10;99.90;;;;;;5132129;28;20047;-81
2023/05/08 04:57:36;;;;;;;14.10;8.82;;;9.10;99.90;;;;;;5131726;28;20035;-81
2023/05/08 05:00:04;;;;;;;12.55;8.70;;;9.10;99.90;;;;;;5114586;28;20047;-81
2023/05/08 05:02:31;;;;;;;13.45;9.10;;;9.10;99.90;;;;;;5115483;28;20840;-81
2023/05/08 05:05:00;;;;;;;12.75;9.00;;;9.20;99.90;;;;;;5098230;28;20040;-82
2023/05/08 05:07:26;;;;;;;12.55;8.93;;;9.20;99.90;;;;;;5115742;28;20047;-82
2023/05/08 05:09:53;;;;;;;13.88;8.73;;;9.20;99.90;;;;;;5127787;27;20414;-81
2023/05/08 05:12:19;;;;;;;15.73;9.90;;;9.20;99.90;;;;;;5152534;27;20047;-81
2023/05/08 05:14:46;;;;;;;12.50;9.05;;;9.20;99.90;;;;;;5152012;27;20047;-82
2023/05/08 05:17:13;;;;;;;12.52;8.85;;;9.30;99.90;;;;;;5135834;27;20074;-81
2023/05/08 05:19:39;;;;;;;14.52;9.68;;;9.30;99.90;;;;;;5128666;28;20027;-81
2023/05/08 05:22:07;;;;;;;13.52;8.88;;;9.30;99.90;;;;;;5142528;27;20069;-81
2023/05/08 05:24:36;;;;;;;13.50;8.82;;;9.40;99.90;;;;;;5135419;27;20047;-82
2023/05/08 05:27:03;;;;;;;14.73;9.43;;;9.40;99.90;;;;;;5118430;27;20130;-81
2023/05/08 05:29:30;;;;;;;15.55;9.90;;;9.40;99.90;;;;;;5131174;28;20125;-81
2023/05/08 05:31:56;;;;;;;13.60;8.75;;;9.50;99.90;;;;;;5114241;28;20497;-81
2023/05/08 05:34:23;;;;;;;13.63;9.00;;;9.50;99.90;;;;;;5114313;28;20078;-82
2023/05/08 05:36:50;;;;;;;14.50;9.35;;;9.60;99.90;;;;;;5137364;28;20031;-81
2023/05/08 05:39:16;;;;;;;14.73;9.07;;;9.60;99.90;;;;;;5114287;28;20035;-81
2023/05/08 05:41:43;;;;;;;12.93;8.40;;;9.70;99.90;;;;;;5131097;28;20044;-81
2023/05/08 05:44:10;;;;;;;14.00;8.82;;;9.70;99.90;;;;;;5114145;28;20122;-82
2023/05/08 05:46:37;;;;;;;12.85;9.25;;;9.80;99.90;;;;;;5134810;27;20046;-82
2023/05/08 05:49:03;;;;;;;13.13;9.30;;;9.80;99.90;;;;;;5134896;27;20031;-81
2023/05/08 05:51:30;;;;;;;12.57;9.25;;;9.90;99.90;;;;;;5150782;27;20039;-81
2023/05/08 05:53:57;;;;;;;13.50;8.40;;;9.90;99.90;;;;;;5151291;27;20130;-81
2023/05/08 05:56:23;;;;;;;12.93;8.75;;;9.90;99.90;;;;;;5118060;27;20035;-82
2023/05/08 05:58:50;;;;;;;15.40;9.45;;;10.00;99.90;;;;;;5117512;27;20046;-81
2023/05/08 06:01:17;;;;;;;14.13;9.38;;;10.00;99.90;;;;;;5126844;28;20753;-82
2023/05/08 06:03:43;;;;;;;16.55;9.55;;;10.10;99.90;;;;;;5114024;28;20032;-82
2023/05/08 06:06:10;;;;;;;13.50;9.18;;;10.10;99.90;;;;;;5130879;28;20101;-82
2023/05/08 06:08:37;;;;;;;16.60;9.43;;;10.20;99.90;;;;;;5130895;28;20043;-82
2023/05/08 06:11:03;;;;;;;13.52;9.52;;;10.20;99.90;;;;;;5096376;28;20096;-82
2023/05/08 06:13:30;;;;;;;13.75;8.85;;;10.30;99.90;;;;;;5130738;28;20046;-82
2023/05/08 06:15:57;;;;;;;13.20;9.25;;;10.40;99.90;;;;;;5130719;28;20031;-82
2023/05/08 06:18:24;;;;;;;13.43;8.60;;;10.40;99.90;;;;;;5143777;27;20046;-82
2023/05/08 06:20:57;;;;;;;13.95;9.48;;;10.50;99.90;;;;;;5130635;28;20079;-81
2023/05/08 06:23:24;;;;;;;11.52;8.63;;;10.60;99.90;;;;;;5130812;28;20058;-82
2023/05/08 06:25:51;;;;;;;12.60;8.95;;;10.60;99.90;;;;;;5114020;28;20047;-82
2023/05/08 06:28:18;;;;;;;13.77;8.82;;;10.70;99.90;;;;;;5113646;28;20051;-82
2023/05/08 06:30:45;;;;;;;14.18;10.13;;;10.70;99.90;;;;;;5147266;28;20039;-83
2023/05/08 06:33:12;;;;;;;13.23;9.38;;;10.80;99.90;;;;;;5150495;27;20035;-83
2023/05/08 06:35:39;;;;;;;14.45;9.75;;;10.90;99.90;;;;;;5133811;27;20566;-82
2023/05/08 06:38:05;;;;;;;13.48;9.32;;;10.90;99.90;;;;;;5163981;27;20050;-83
2023/05/08 06:40:32;;;;;;;13.52;9.15;;;11.00;99.90;;;;;;5120392;27;20088;-83
2023/05/08 06:42:59;;;;;;;12.93;9.70;;;11.10;99.90;;;;;;5116107;27;20045;-82
2023/05/08 06:45:26;;;;;;;13.38;9.85;;;11.20;99.90;;;;;;5096369;28;20044;-83
2023/05/08 06:47:52;;;;;;;14.65;9.90;;;11.30;99.90;;;;;;5100523;28;20036;-83
2023/05/08 06:50:19;;;;;;;13.50;9.63;;;11.40;99.90;;;;;;5105741;27;20510;-83
2023/05/08 06:52:46;;;;;;;14.13;9.75;;;11.50;99.90;;;;;;5099530;27;20027;-83
2023/05/08 06:55:12;;;;;;;16.17;9.50;;;11.70;99.90;;;;;;5113451;28;20058;-82
2023/05/08 06:57:39;;;;;;;14.05;8.93;;;11.80;99.90;;;;;;5132931;27;20122;-83
2023/05/08 07:00:06;;;;;;;12.73;9.27;;;12.00;99.90;;;;;;5133958;27;20037;-83
2023/05/08 07:02:33;;;;;;;13.80;9.38;;;12.10;99.90;;;;;;5117170;27;20046;-83
2023/05/08 07:05:00;;;;;;;13.55;9.40;;;12.20;99.90;;;;;;5139651;28;20040;-82
2023/05/08 07:07:30;;;;;;;12.45;9.05;;;12.40;99.90;;;;;;5130910;28;20046;-83
2023/05/08 07:09:56;;;;;;;14.70;9.52;;;12.60;99.90;;;;;;5129042;28;20039;-83
2023/05/08 07:12:23;;;;;;;10.93;8.63;;;12.80;99.90;;;;;;5112748;28;20127;-84
2023/05/08 07:14:50;;;;;;;13.30;8.85;;;13.00;99.90;;;;;;5113420;28;20598;-83
2023/05/08 07:17:16;;;;;;;11.80;8.43;;;13.20;99.90;;;;;;5112739;28;20039;-83
2023/05/08 07:19:43;;;;;;;12.80;8.90;;;13.40;99.90;;;;;;5129920;28;20031;-83
2023/05/08 07:22:10;;;;;;;13.52;9.27;;;13.60;99.90;;;;;;5114416;27;20047;-83
2023/05/08 07:24:36;;;;;;;11.93;8.18;;;13.70;99.90;;;;;;5137139;27;20039;-84
2023/05/08 07:27:03;;;;;;;14.25;9.43;;;13.70;99.90;;;;;;5120282;27;20035;-83
2023/05/08 07:29:30;;;;;;;14.55;9.40;;;13.70;99.90;;;;;;5128287;27;20130;-83
2023/05/08 07:31:57;;;;;;;11.73;8.63;;;13.80;99.90;;;;;;5116579;28;20069;-83
2023/05/08 07:34:23;;;;;;;13.40;8.48;;;13.90;99.90;;;;;;5116435;28;20514;-83
2023/05/08 07:36:50;;;;;;;10.82;8.50;;;14.00;99.90;;;;;;5116916;28;20040;-83
2023/05/08 07:39:17;;;;;;;13.00;8.70;;;14.00;99.90;;;;;;5133733;28;20039;-83
2023/05/08 07:41:44;;;;;;;12.50;8.43;;;14.00;99.90;;;;;;5116990;28;20047;-83
2023/05/08 07:44:11;;;;;;;11.13;7.90;;;14.10;99.90;;;;;;5117193;27;20047;-83
2023/05/08 07:46:37;;;;;;;12.38;9.07;;;14.10;99.90;;;;;;5120382;27;20701;-83
2023/05/08 07:49:05;;;;;;;13.15;8.40;;;14.20;99.90;;;;;;5154025;27;20087;-83
2023/05/08 07:51:32;;;;;;;11.55;8.90;;;14.40;99.90;;;;;;5137054;27;20042;-84
2023/05/08 07:53:58;;;;;;;12.57;9.25;;;14.50;99.90;;;;;;5136995;27;20035;-83
2023/05/08 07:56:26;;;;;;;11.60;8.60;;;14.80;99.90;;;;;;5133479;28;20545;-84
2023/05/08 07:58:52;;;;;;;12.10;8.60;;;14.90;99.90;;;;;;5099834;28;20168;-84
2023/05/08 08:01:19;;;;;;;12.55;8.50;;;15.00;99.90;;;;;;5115966;28;20126;-84
2023/05/08 08:03:46;;;;;;;13.02;9.38;;;15.10;99.90;;;;;;5149998;28;20498;-84
2023/05/08 08:06:13;;;;;;;12.20;8.45;;;15.10;99.90;;;;;;5130421;27;20388;-84
2023/05/08 08:08:40;;;;;;;12.73;9.13;;;15.00;99.90;;;;;;5136458;27;20050;-84
2023/05/08 08:11:07;;;;;;;11.27;8.20;;;15.00;99.90;;;;;;5153170;27;20049;-83
2023/05/08 08:13:34;;;;;;;12.95;9.20;;;15.00;99.90;;;;;;5132498;28;20085;-83
2023/05/08 08:16:03;;;;;;;13.23;8.40;;;15.00;99.90;;;;;;5116117;28;20039;-85
2023/05/08 08:18:32;;;;;;;11.88;8.70;;;15.00;99.90;;;;;;5116296;28;20077;-84
2023/05/08 08:20:59;;;;;;;11.68;8.98;;;15.10;99.90;;;;;;5133225;28;20077;-83
2023/05/08 08:23:26;;;;;;;11.40;8.75;;;15.10;99.90;;;;;;5118998;28;20043;-84
2023/05/08 08:25:53;;;;;;;11.05;8.40;;;15.10;99.90;;;;;;5099122;28;20035;-85
2023/05/08 08:28:19;;;;;;;11.80;8.88;;;15.00;99.90;;;;;;5134806;28;20122;-84
2023/05/08 08:30:46;;;;;;;11.45;8.77;;;14.90;99.90;;;;;;5099423;28;20086;-84
2023/05/08 08:33:13;;;;;;;14.00;8.93;;;14.90;99.90;;;;;;5116824;27;20040;-83
2023/05/08 08:35:39;;;;;;;12.50;9.18;;;15.00;99.90;;;;;;5131775;28;20044;-83
2023/05/08 08:38:06;;;;;;;12.18;8.80;;;15.10;99.90;;;;;;5100094;27;20047;-83
2023/05/08 08:40:38;;;;;;;12.27;9.40;;;15.20;99.90;;;;;;5115073;28;20070;-83
2023/05/08 08:43:05;;;;;;;13.68;9.60;;;15.20;99.90;;;;;;5132223;28;20040;-83
2023/05/08 08:45:31;;;;;;;12.07;9.70;;;15.30;99.90;;;;;;5148101;27;20552;-83
2023/05/08 08:48:01;;;;;;;13.70;9.27;;;15.50;99.90;;;;;;5126011;28;20038;-84
2023/05/08 08:50:32;;;;;;;12.38;9.30;;;15.70;99.90;;;;;;5117306;27;20119;-83
2023/05/08 08:53:11;;;;;;;12.40;9.02;;;16.00;99.90;;;;;;5134402;28;20126;-83
2023/05/08 08:55:42;;;;;;;14.18;9.98;;;16.20;99.90;;;;;;5146272;28;20043;-83
2023/05/08 08:58:20;;;;;;;12.70;9.25;;;16.30;99.90;;;;;;5149108;27;20067;-84
2023/05/08 09:00:48;;;;;;;13.40;9.68;;;16.40;99.90;;;;;;5152571;27;20495;-84
2023/05/08 09:03:15;;;;;;;12.02;9.60;;;16.50;99.90;;;;;;5135559;27;20122;-84
2023/05/08 09:05:43;;;;;;;11.35;9.35;;;16.60;99.90;;;;;;5135080;27;20133;-83
2023/05/08 09:08:11;;;;;;;13.10;9.35;;;16.70;99.90;;;;;;5152921;27;20397;-83
2023/05/08 09:10:38;;;;;;;11.75;9.10;;;16.80;99.90;;;;;;5115205;28;20043;-84
2023/05/08 09:13:05;;;;;;;12.00;9.60;;;16.90;99.90;;;;;;5114629;28;20036;-83
2023/05/08 09:15:32;;;;;;;11.80;9.40;;;17.00;99.90;;;;;;5114782;28;20035;-84
2023/05/08 09:18:02;;;;;;;11.75;8.98;;;17.00;99.90;;;;;;5124985;27;20034;-83
2023/05/08 09:20:29;;;;;;;12.10;10.05;;;17.00;99.90;;;;;;5151767;27;20122;-84
2023/05/08 09:22:59;;;;;;;12.70;10.13;;;17.00;99.90;;;;;;5152193;27;20778;-83
2023/05/08 09:25:40;;;;;;;12.43;10.23;;;17.10;99.90;;;;;;5135073;27;20612;-84
2023/05/08 09:28:22;;;;;;;12.55;9.85;;;17.00;99.90;;;;;;5168496;27;20055;-84
2023/05/08 09:30:51;;;;;;;14.40;10.10;;;17.00;99.90;;;;;;5148201;27;20099;-84
2023/05/08 09:33:19;;;;;;;13.88;10.27;;;17.20;99.90;;;;;;5146591;27;20038;-83
2023/05/08 09:35:47;;;;;;;12.82;9.60;;;17.20;99.90;;;;;;5121948;28;20051;-83
2023/05/08 09:38:31;;;;;;;11.85;9.30;;;17.40;99.90;;;;;;5099434;28;20543;-84
2023/05/08 09:41:15;;;;;;;12.68;9.68;;;17.50;99.90;;;;;;5139727;27;20054;-82
2023/05/08 09:43:43;;;;;;;12.73;10.20;;;17.50;99.90;;;;;;5142084;28;20040;-83
2023/05/08 09:46:32;;;;;;;12.55;9.77;;;17.50;99.90;;;;;;5130266;28;20039;-83
2023/05/08 09:49:01;;;;;;;13.55;9.45;;;17.70;99.90;;;;;;5162406;27;20039;-82
2023/05/08 09:51:30;;;;;;;12.45;9.95;;;17.90;99.90;;;;;;5125423;28;20040;-82
2023/05/08 09:53:58;;;;;;;13.63;9.80;;;17.80;99.90;;;;;;5150166;27;20118;-83
2023/05/08 09:56:32;;;;;;;14.15;10.07;;;18.00;99.90;;;;;;5117303;28;20483;-83
2023/05/08 09:58:59;;;;;;;12.77;9.38;;;18.10;99.90;;;;;;5131355;28;20046;-83
2023/05/08 10:01:30;;;;;;;12.60;9.20;;;18.20;99.90;;;;;;5141680;27;20498;-84
2023/05/08 10:03:57;;;;;;;12.35;8.88;;;18.40;99.90;;;;;;5151254;27;20133;-82
2023/05/08 10:06:24;;;;;;;12.07;9.18;;;18.50;99.90;;;;;;5151092;27;20180;-82
2023/05/08 10:09:06;;;;;;;14.15;10.57;;;18.50;99.90;;;;;;5134433;27;20051;-83
2023/05/08 10:11:33;;;;;;;12.00;9.73;;;18.50;99.90;;;;;;5150313;27;20172;-83
2023/05/08 10:14:00;;;;;;;11.95;9.65;;;18.60;99.90;;;;;;5122996;28;20114;-83
2023/05/08 10:16:28;;;;;;;12.88;9.45;;;18.60;99.90;;;;;;5113929;28;20122;-83
2023/05/08 10:19:01;;;;;;;12.93;9.90;;;18.70;99.90;;;;;;5130305;28;20040;-83
2023/05/08 10:21:34;;;;;;;12.10;9.60;;;18.80;99.90;;;;;;5130280;28;20046;-83
2023/05/08 10:24:04;;;;;;;12.68;10.10;;;18.80;99.90;;;;;;5130577;28;20884;-83
2023/05/08 10:26:33;;;;;;;14.30;10.50;;;18.80;99.90;;;;;;5161498;27;20055;-82
2023/05/08 10:29:07;;;;;;;13.15;11.25;;;19.00;99.90;;;;;;5168284;27;20050;-83
2023/05/08 10:31:37;;;;;;;15.80;11.32;;;19.00;99.90;;;;;;5150217;27;20042;-82
2023/05/08 10:34:07;;;;;;;13.07;11.20;;;19.00;99.90;;;;;;5129969;28;20472;-84
2023/05/08 10:36:36;;;;;;;13.38;10.07;;;19.00;99.90;;;;;;5129656;28;20083;-83
2023/05/08 10:39:04;;;;;;;13.07;10.60;;;19.10;99.90;;;;;;5129864;28;20035;-82
2023/05/08 10:41:31;;;;;;;14.88;10.80;;;19.20;99.90;;;;;;5129502;28;20074;-83
2023/05/08 10:43:59;;;;;;;13.88;10.73;;;19.30;99.90;;;;;;5130994;28;20069;-82
2023/05/08 10:46:52;;;;;;;14.20;11.32;;;19.30;99.90;;;;;;5136643;28;20728;-83
2023/05/08 10:49:37;;;;;;;13.93;11.55;;;19.40;99.90;;;;;;5147351;27;20119;-83
2023/05/08 10:52:19;;;;;;;;;;;19.30;99.90;;;;;;5145056;28;20035;-84
2023/05/08 10:55:03;;;;;;;14.77;11.23;;;19.30;99.90;;;;;;5146714;28;19919;-84
2023/05/08 10:57:30;;;;;;;14.90;11.75;;;19.40;99.90;;;;;;5155364;27;20046;-83
2023/05/08 10:59:57;;;;;;;14.32;11.90;;;19.30;99.90;;;;;;5150392;28;20039;-83
2023/05/08 11:02:35;;;;;;;16.33;11.65;;;19.40;99.90;;;;;;5133168;27;20043;-83
2023/05/08 11:05:16;;;;;;;13.98;11.35;;;19.30;99.90;;;;;;5134375;28;20046;-83
2023/05/08 11:07:55;;;;;;;15.20;11.07;;;19.50;99.90;;;;;;5133284;27;20039;-84
2023/05/08 11:10:30;;;;;;;13.82;10.48;;;19.50;99.90;;;;;;5150247;28;20122;-83
2023/05/08 11:12:58;;;;;;;14.93;11.57;;;19.60;99.90;;;;;;5121560;28;20073;-83
2023/05/08 11:15:39;;;;;;;13.38;11.23;;;19.70;99.90;;;;;;5160687;27;20087;-83
2023/05/08 11:18:08;;;;;;;15.20;11.70;;;19.70;99.90;;;;;;5129989;28;20040;-83
2023/05/08 11:20:40;;;;;;;13.13;10.95;;;19.80;99.90;;;;;;5129878;28;20035;-82
2023/05/08 11:23:29;;;;;;;14.52;10.93;;;19.90;99.90;;;;;;5135118;28;20089;-84
2023/05/08 11:26:04;;;;;;;14.50;11.27;;;19.90;99.90;;;;;;5136633;28;20043;-83
2023/05/08 11:28:51;;;;;;;;;;;20.00;99.90;;;;;;5150170;28;20212;-83
2023/05/08 11:31:17;;;;;;;12.65;10.75;;;20.10;99.90;;;;;;5149069;28;20010;-84
2023/05/08 11:33:44;;;;;;;16.85;10.77;;;20.20;99.90;;;;;;5112175;28;20559;-83
2023/05/08 11:36:24;;;;;;;16.42;11.70;;;20.30;99.90;;;;;;5125555;28;20051;-83
2023/05/08 11:39:14;;;;;;;15.40;11.40;;;20.40;99.90;;;;;;5133147;28;20055;-83
2023/05/08 11:41:41;;;;;;;14.48;11.75;;;20.40;99.90;;;;;;5150400;28;20051;-83
2023/05/08 11:44:21;;;;;;;14.05;11.18;;;20.50;99.90;;;;;;5130776;28;20046;-83
2023/05/08 11:46:51;;;;;;;13.60;10.73;;;20.60;99.90;;;;;;5143436;28;20039;-83
2023/05/08 11:49:20;;;;;;;14.73;11.75;;;20.70;99.90;;;;;;5161260;28;20035;-85
2023/05/08 11:51:56;;;;;;;16.10;11.73;;;20.80;99.90;;;;;;5149451;28;20046;-85
2023/05/08 11:54:25;;;;;;;15.93;11.98;;;20.80;99.90;;;;;;5143816;28;20047;-85
2023/05/08 11:56:53;;;;;;;14.00;10.98;;;20.80;99.90;;;;;;5132913;28;20082;-84
2023/05/08 11:59:20;;;;;;;17.38;11.75;;;20.80;99.90;;;;;;5129044;28;20063;-85
2023/05/08 12:01:51;;;;;;;15.80;13.05;;;20.80;99.90;;;;;;5112654;28;20113;-87
2023/05/08 12:04:18;;;;;;;13.55;11.23;;;20.90;99.90;;;;;;5145667;28;20047;-87
2023/05/08 12:06:47;;;;;;;31.80;12.60;;;20.90;99.90;;;;;;5130593;28;20032;-88
2023/05/08 12:09:16;;;;;;;15.07;12.38;;;20.80;99.90;;;;;;5127208;28;20039;-87
2023/05/08 12:11:44;;;;;;;16.83;11.70;;;20.80;99.90;;;;;;5145988;27;20035;-86
2023/05/08 12:14:12;;;;;;;15.27;12.25;;;21.00;99.90;;;;;;5138651;27;20045;-87
2023/05/08 12:16:39;;;;;;;17.27;12.43;;;21.00;99.90;;;;;;5154354;27;20046;-86
2023/05/08 12:19:10;;;;;;;19.02;12.15;;;21.20;99.90;;;;;;5134560;28;20514;-88
2023/05/08 12:21:38;;;;;;;15.65;13.02;;;21.20;99.90;;;;;;5134502;28;20079;-87
2023/05/08 12:24:06;;;;;;;15.43;12.60;;;21.20;99.90;;;;;;5133691;28;20039;-87
2023/05/08 12:26:37;;;;;;;15.18;12.18;;;21.20;99.90;;;;;;5133988;28;20043;-86
2023/05/08 12:29:06;;;;;;;14.95;12.38;;;21.20;99.90;;;;;;5147980;27;20567;-83
2023/05/08 12:31:36;;;;;;;18.17;12.20;;;21.20;99.90;;;;;;5152519;27;20066;-80
2023/05/08 12:34:05;;;;;;;17.38;11.93;;;21.20;99.90;;;;;;5136250;27;20474;-80
2023/05/08 12:36:35;;;;;;;16.45;12.00;;;21.20;99.90;;;;;;5135788;27;20392;-80
2023/05/08 12:39:14;;;;;;;17.15;12.57;;;21.40;99.90;;;;;;5152652;27;20491;-81
2023/05/08 12:41:49;;;;;;;14.95;12.65;;;21.40;99.90;;;;;;5152241;27;20050;-80
2023/05/08 12:44:17;;;;;;;14.38;12.18;;;21.30;99.90;;;;;;5170323;27;20047;-81
2023/05/08 12:46:51;;;;;;;16.38;12.35;;;21.30;99.90;;;;;;5135514;27;20035;-79
2023/05/08 12:49:31;;;;;;;15.67;12.97;;;21.30;99.90;;;;;;5132333;28;20075;-80
2023/05/08 12:52:06;;;;;;;16.38;11.85;;;21.30;99.90;;;;;;5135189;27;20582;-81
2023/05/08 12:54:36;;;;;;;15.05;12.27;;;21.50;99.90;;;;;;5136179;27;20506;-78